Startpagina
METAR-TAF:

METAR-TAF

Vliegvelden :

Cuenca, Ecuador

breedte: 02-53-22S, lengte: 078-59-04W, hoogte: 2532 m

Actueel weer

Dit bericht is 49 minuten geleden gemaakt, om 22:00 UTC
Wind 11 kt uit het noordoosten
Temperatuur 18°C
Vochtigheid 52%
Druk 1024 hPa
Zicht 10 km of meer
Gebroken wolken op 4000 ft

METAR: SECU 192200Z 05011KT 9999 BKN040 18/08 Q1024

Tijdstip: 17:49 (22:49 UTC)


TAF: ontbreekt

Waarnemingen en weersverwachtingen van meer dan 4000 vliegvelden (METAR en TAF).

De beschikbare stations zijn de gele en rode punten op de kaart.

Ga met uw muis naar het station om de naam te zien.

Klik dan om waarnemingen en weersverwachtingen te zien.

kaart wijzigen: klik op de groene knoppen met een zwart kruis om in te zoomen, op de groene knop met een streepje om uit te zoomen of op de groene pijlen voor aangrenzende kaarten.


METAR-TAF: